Time;durP1;ratioP1;P1;durP2;ratioP2;P2;SDS_P1;SDS_P2;PMS_P1;PMS_P2;Temp;Humidity;BMP_temperature;BMP_pressure;BME280_temperature;BME280_humidity;BME280_pressure;Samples;Min_cycle;Max_cycle;Signal;HPM_P1;HPM_P2
2023/08/29 00:00:18;;;;;;;4.20;2.65;;;;;;;;;;5116831;27;20017;-71
2023/08/29 00:02:44;;;;;;;4.10;2.47;;;;;;;;;;5116816;27;20050;-72
2023/08/29 00:05:10;;;;;;;5.22;2.90;;;;;;;;;;5135179;27;20039;-71
2023/08/29 00:07:38;;;;;;;6.32;3.05;;;;;;;;;;5117287;27;20088;-71
2023/08/29 00:10:04;;;;;;;4.72;2.58;;;;;;;;;;5116486;27;20047;-71
2023/08/29 00:12:32;;;;;;;6.93;2.90;;;;;;;;;;5116294;27;20055;-71
2023/08/29 00:14:58;;;;;;;5.60;2.92;;;;;;;;;;5116465;27;20039;-71
2023/08/29 00:17:26;;;;;;;5.72;2.97;;;;;;;;;;5099822;27;20123;-71
2023/08/29 00:19:52;;;;;;;3.90;2.50;;;;;;;;;;5117301;27;20090;-71
2023/08/29 00:22:18;;;;;;;8.07;2.70;;;;;;;;;;5116576;27;20126;-71
2023/08/29 00:24:44;;;;;;;9.63;3.03;;;;;;;;;;5116956;27;20039;-71
2023/08/29 00:27:11;;;;;;;5.82;3.20;;;;;;;;;;5099361;27;20059;-71
2023/08/29 00:29:37;;;;;;;5.47;3.28;;;;;;;;;;5116175;27;20483;-71
2023/08/29 00:32:03;;;;;;;;;;;;;;;;;;5116708;27;20100;-71
2023/08/29 00:34:29;;;;;;;5.07;2.80;;;;;;;;;;5116929;27;19923;-71
2023/08/29 00:36:56;;;;;;;4.22;2.65;;;;;;;;;;5099807;27;20505;-74
2023/08/29 00:39:22;;;;;;;4.45;2.40;;;;;;;;;;5116685;27;20051;-71
2023/08/29 00:41:49;;;;;;;;;;;;;;;;;;5117142;27;20454;-71
2023/08/29 00:44:16;;;;;;;7.57;2.83;;;;;;;;;;5115183;27;19926;-71
2023/08/29 00:46:43;;;;;;;4.80;2.78;;;;;;;;;;5116143;27;20100;-71
2023/08/29 00:49:10;;;;;;;6.65;2.65;;;;;;;;;;5115392;27;20059;-71
2023/08/29 00:51:36;;;;;;;5.95;3.00;;;;;;;;;;5116638;27;20461;-71
2023/08/29 00:54:03;;;;;;;5.65;3.03;;;;;;;;;;5115937;27;20111;-71
2023/08/29 00:56:29;;;;;;;5.63;2.85;;;;;;;;;;5099416;27;20058;-72
2023/08/29 00:58:55;;;;;;;;;;;;;;;;;;5115894;27;20039;-71
2023/08/29 01:01:21;;;;;;;6.78;3.20;;;;;;;;;;5115924;27;19942;-71
2023/08/29 01:03:48;;;;;;;5.25;3.05;;;;;;;;;;5115646;27;20051;-71
2023/08/29 01:06:14;;;;;;;6.13;3.45;;;;;;;;;;5115767;27;20039;-71
2023/08/29 01:08:40;;;;;;;6.20;3.10;;;;;;;;;;5116157;27;20177;-71
2023/08/29 01:11:06;;;;;;;6.75;3.40;;;;;;;;;;5115387;27;20055;-71
2023/08/29 01:13:42;;;;;;;6.88;3.50;;;;;;;;;;5133371;27;20043;-71
2023/08/29 01:16:10;;;;;;;5.60;3.50;;;;;;;;;;5115739;27;20043;-71
2023/08/29 01:18:38;;;;;;;7.25;3.60;;;;;;;;;;5098695;27;20054;-71
2023/08/29 01:21:16;;;;;;;5.88;3.20;;;;;;;;;;5115282;27;20047;-71
2023/08/29 01:23:45;;;;;;;4.85;2.90;;;;;;;;;;5098816;27;20137;-71
2023/08/29 01:26:14;;;;;;;4.10;2.88;;;;;;;;;;5115344;27;20383;-71
2023/08/29 01:28:44;;;;;;;6.57;2.95;;;;;;;;;;5115033;27;20054;-71
2023/08/29 01:31:10;;;;;;;5.28;2.80;;;;;;;;;;5133577;27;20037;-71
2023/08/29 01:33:38;;;;;;;4.32;2.60;;;;;;;;;;5115105;27;20079;-71
2023/08/29 01:36:04;;;;;;;4.18;2.78;;;;;;;;;;5114956;27;20062;-71
2023/08/29 01:38:30;;;;;;;5.35;3.13;;;;;;;;;;5115602;27;20043;-71
2023/08/29 01:40:56;;;;;;;;;;;;;;;;;;5116060;27;20061;-71
2023/08/29 01:43:22;;;;;;;4.80;2.78;;;;;;;;;;5114038;27;20595;-71
2023/08/29 01:45:49;;;;;;;3.92;2.55;;;;;;;;;;5115436;27;20043;-71
2023/08/29 01:48:15;;;;;;;;;;;;;;;;;;5115095;27;20133;-71
2023/08/29 01:50:45;;;;;;;4.07;2.80;;;;;;;;;;5115602;27;19966;-71
2023/08/29 01:53:12;;;;;;;5.70;3.03;;;;;;;;;;5114896;27;20047;-71
2023/08/29 01:55:38;;;;;;;5.13;2.60;;;;;;;;;;5115439;27;20051;-71
2023/08/29 01:58:05;;;;;;;4.60;2.45;;;;;;;;;;5112670;27;20050;-72
2023/08/29 02:00:32;;;;;;;4.68;2.85;;;;;;;;;;5133620;27;20134;-71
2023/08/29 02:02:58;;;;;;;3.22;2.20;;;;;;;;;;5114976;27;20467;-71
2023/08/29 02:05:24;;;;;;;3.25;2.00;;;;;;;;;;5114532;27;20092;-71
2023/08/29 02:07:50;;;;;;;3.45;2.35;;;;;;;;;;5115236;27;20134;-71
2023/08/29 02:10:16;;;;;;;4.20;2.75;;;;;;;;;;5097122;27;20046;-71
2023/08/29 02:12:43;;;;;;;4.45;3.20;;;;;;;;;;5114232;27;20087;-71
2023/08/29 02:15:09;;;;;;;;;;;;;;;;;;5132770;27;20080;-71
2023/08/29 02:17:36;;;;;;;6.03;3.65;;;;;;;;;;5114769;27;19926;-71
2023/08/29 02:20:03;;;;;;;7.82;3.80;;;;;;;;;;5115083;27;20065;-73
2023/08/29 02:22:30;;;;;;;7.43;3.72;;;;;;;;;;5114585;28;20055;-71
2023/08/29 02:24:57;;;;;;;6.05;3.10;;;;;;;;;;5097816;28;20043;-71
2023/08/29 02:27:23;;;;;;;;;;;;;;;;;;5114230;27;20050;-71
2023/08/29 02:29:50;;;;;;;4.85;3.22;;;;;;;;;;5114505;28;19923;-71
2023/08/29 02:32:17;;;;;;;8.25;3.47;;;;;;;;;;5132082;27;20158;-71
2023/08/29 02:34:43;;;;;;;7.70;3.13;;;;;;;;;;5114938;28;20046;-72
2023/08/29 02:37:09;;;;;;;;;;;;;;;;;;5114723;28;20093;-72
2023/08/29 02:39:35;;;;;;;4.90;3.03;;;;;;;;;;5097836;28;19947;-71
2023/08/29 02:42:01;;;;;;;9.65;3.80;;;;;;;;;;5114296;28;20050;-71
2023/08/29 02:44:27;;;;;;;;;;;;;;;;;;5113717;28;20437;-71
2023/08/29 02:46:53;;;;;;;5.13;2.92;;;;;;;;;;5114889;28;19919;-71
2023/08/29 02:49:19;;;;;;;;;;;;;;;;;;5114255;28;20471;-71
2023/08/29 02:51:46;;;;;;;5.32;3.17;;;;;;;;;;5114637;28;20010;-71
2023/08/29 02:54:11;;;;;;;;;;;;;;;;;;5114420;28;20050;-71
2023/08/29 02:56:38;;;;;;;5.03;3.35;;;;;;;;;;5114632;28;19919;-71
2023/08/29 02:59:04;;;;;;;6.68;3.50;;;;;;;;;;5113744;28;20054;-71
2023/08/29 03:01:30;;;;;;;5.50;3.55;;;;;;;;;;5114197;28;20051;-71
2023/08/29 03:03:56;;;;;;;8.15;3.15;;;;;;;;;;5132257;28;20079;-71
2023/08/29 03:06:22;;;;;;;;;;;;;;;;;;5114539;28;20509;-71
2023/08/29 03:08:48;;;;;;;7.32;3.45;;;;;;;;;;5115226;27;20010;-71
2023/08/29 03:11:14;;;;;;;4.75;2.92;;;;;;;;;;5117571;27;20117;-71
2023/08/29 03:13:40;;;;;;;;;;;;;;;;;;5117776;27;20181;-71
2023/08/29 03:16:15;;;;;;;5.55;1.98;;;;;;;;;;5118606;27;20375;-71
2023/08/29 03:18:41;;;;;;;6.75;1.98;;;;;;;;;;5118014;27;20058;-71
2023/08/29 03:21:07;;;;;;;;;;;;;;;;;;5118867;27;20502;-73
2023/08/29 03:23:36;;;;;;;110.82;4.50;;;;;;;;;;5117621;27;19926;-71
2023/08/29 03:26:06;;;;;;;38.10;3.17;;;;;;;;;;5118259;27;20115;-71
2023/08/29 03:28:33;;;;;;;26.42;2.42;;;;;;;;;;5116741;27;20062;-71
2023/08/29 03:31:12;;;;;;;45.05;2.97;;;;;;;;;;5101382;27;20110;-71
2023/08/29 03:33:42;;;;;;;93.75;5.75;;;;;;;;;;5117761;27;20584;-71
2023/08/29 03:36:08;;;;;;;74.25;4.38;;;;;;;;;;5118160;27;20047;-71
2023/08/29 03:38:36;;;;;;;111.90;5.97;;;;;;;;;;5117539;27;20051;-71
2023/08/29 03:41:03;;;;;;;14.88;2.97;;;;;;;;;;5118018;27;20455;-71
2023/08/29 03:43:30;;;;;;;97.13;5.05;;;;;;;;;;5116518;27;20082;-71
2023/08/29 03:46:00;;;;;;;64.75;4.00;;;;;;;;;;5117682;27;20051;-71
2023/08/29 03:48:26;;;;;;;204.57;8.25;;;;;;;;;;5135072;27;20058;-71
2023/08/29 03:50:52;;;;;;;;;;;;;;;;;;5118267;27;20039;-71
2023/08/29 03:53:18;;;;;;;100.05;4.38;;;;;;;;;;5117166;27;19919;-71
2023/08/29 03:55:44;;;;;;;;;;;;;;;;;;5118113;27;20055;-71
2023/08/29 03:58:10;;;;;;;181.48;9.38;;;;;;;;;;5116743;27;20035;-73
2023/08/29 04:00:37;;;;;;;52.15;4.03;;;;;;;;;;5135853;27;20047;-71
2023/08/29 04:03:08;;;;;;;12.05;2.33;;;;;;;;;;5116887;27;20130;-71
2023/08/29 04:05:36;;;;;;;58.05;3.50;;;;;;;;;;5135223;27;20086;-71
2023/08/29 04:08:03;;;;;;;56.63;3.55;;;;;;;;;;5117363;27;20047;-71
2023/08/29 04:10:29;;;;;;;29.80;2.72;;;;;;;;;;5099964;27;20487;-71
2023/08/29 04:12:55;;;;;;;;;;;;;;;;;;5116837;27;20126;-71
2023/08/29 04:15:21;;;;;;;3.33;2.05;;;;;;;;;;5116463;27;20007;-71
2023/08/29 04:17:47;;;;;;;;;;;;;;;;;;5135253;27;20480;-71
2023/08/29 04:20:13;;;;;;;4.28;2.15;;;;;;;;;;5116279;28;19926;-74
2023/08/29 04:22:39;;;;;;;;;;;;;;;;;;5116860;27;20491;-71
2023/08/29 04:25:08;;;;;;;2.70;1.80;;;;;;;;;;5099997;27;19923;-71
2023/08/29 04:27:35;;;;;;;2.80;2.05;;;;;;;;;;5115745;27;20659;-71
2023/08/29 04:30:02;;;;;;;3.40;1.98;;;;;;;;;;5134809;27;20051;-71
2023/08/29 04:32:33;;;;;;;;;;;;;;;;;;5116499;27;20087;-71
2023/08/29 04:34:59;;;;;;;3.58;2.30;;;;;;;;;;5117068;27;19923;-71
2023/08/29 04:37:25;;;;;;;6.57;2.38;;;;;;;;;;5116335;27;20094;-71
2023/08/29 04:39:52;;;;;;;4.70;2.40;;;;;;;;;;5116886;27;20087;-71
2023/08/29 04:42:17;;;;;;;;;;;;;;;;;;5116015;27;20043;-71
2023/08/29 04:44:44;;;;;;;2.22;1.40;;;;;;;;;;5116242;27;19997;-71
2023/08/29 04:47:10;;;;;;;1.92;1.60;;;;;;;;;;5099377;27;20087;-71
2023/08/29 04:49:36;;;;;;;1.88;1.50;;;;;;;;;;5116332;27;20039;-71
2023/08/29 04:52:02;;;;;;;4.03;2.00;;;;;;;;;;5116697;27;20039;-71
2023/08/29 04:54:28;;;;;;;8.02;2.83;;;;;;;;;;5115717;27;20471;-71
2023/08/29 04:56:54;;;;;;;7.97;3.50;;;;;;;;;;5116408;27;20035;-71
2023/08/29 04:59:20;;;;;;;7.45;3.88;;;;;;;;;;5114673;27;20043;-71
2023/08/29 05:01:46;;;;;;;6.35;3.55;;;;;;;;;;5116489;27;20153;-71
2023/08/29 05:04:12;;;;;;;;;;;;;;;;;;5099426;27;20043;-71
2023/08/29 05:06:38;;;;;;;7.70;3.65;;;;;;;;;;5115795;27;19919;-71
2023/08/29 05:09:06;;;;;;;7.30;3.90;;;;;;;;;;5116256;27;20047;-71
2023/08/29 05:11:33;;;;;;;7.43;4.10;;;;;;;;;;5115166;27;20559;-71
2023/08/29 05:13:59;;;;;;;5.82;3.45;;;;;;;;;;5115229;27;20394;-72
2023/08/29 05:16:25;;;;;;;6.18;3.72;;;;;;;;;;5115833;27;20051;-71
2023/08/29 05:18:51;;;;;;;5.35;3.35;;;;;;;;;;5098769;27;20054;-72
2023/08/29 05:21:17;;;;;;;;;;;;;;;;;;5116582;27;20043;-71
2023/08/29 05:23:43;;;;;;;7.47;3.67;;;;;;;;;;5115389;27;19919;-72
2023/08/29 05:26:09;;;;;;;9.15;3.70;;;;;;;;;;5098990;27;20054;-71
2023/08/29 05:28:35;;;;;;;4.45;2.85;;;;;;;;;;5114521;27;20047;-71
2023/08/29 05:31:01;;;;;;;6.63;3.30;;;;;;;;;;5115949;27;20040;-71
2023/08/29 05:33:27;;;;;;;;;;;;;;;;;;5114800;27;20507;-71
2023/08/29 05:35:53;;;;;;;5.05;3.17;;;;;;;;;;5115764;27;19926;-71
2023/08/29 05:38:20;;;;;;;;;;;;;;;;;;5116073;28;20126;-74
2023/08/29 05:40:51;;;;;;;4.85;2.50;;;;;;;;;;5115246;27;19919;-71
2023/08/29 05:43:18;;;;;;;4.70;2.60;;;;;;;;;;5133204;27;20530;-71
2023/08/29 05:45:44;;;;;;;4.18;2.60;;;;;;;;;;5115045;27;20039;-71
2023/08/29 05:48:10;;;;;;;4.05;2.40;;;;;;;;;;5115186;27;20046;-71
2023/08/29 05:50:36;;;;;;;;;;;;;;;;;;5115528;27;20395;-71
2023/08/29 05:53:02;;;;;;;4.65;2.38;;;;;;;;;;5115217;27;19919;-71
2023/08/29 05:55:28;;;;;;;;;;;;;;;;;;5115481;27;20045;-72
2023/08/29 05:57:54;;;;;;;4.25;2.38;;;;;;;;;;5114637;27;19919;-72
2023/08/29 06:00:20;;;;;;;2.78;2.17;;;;;;;;;;5115000;27;20506;-71
2023/08/29 06:02:47;;;;;;;3.67;2.30;;;;;;;;;;5113558;27;20392;-71
2023/08/29 06:05:14;;;;;;;3.47;2.20;;;;;;;;;;5115094;27;20043;-71
2023/08/29 06:07:40;;;;;;;;;;;;;;;;;;5081333;27;20073;-71
2023/08/29 06:10:07;;;;;;;5.70;3.20;;;;;;;;;;5115176;27;20351;-71
2023/08/29 06:12:33;;;;;;;4.75;2.90;;;;;;;;;;5093189;28;20155;-71
2023/08/29 06:14:59;;;;;;;5.28;3.00;;;;;;;;;;5112238;28;20056;-71
2023/08/29 06:17:25;;;;;;;4.45;3.00;;;;;;;;;;5110950;28;20071;-74
2023/08/29 06:19:51;;;;;;;;;;;;;;;;;;5095255;28;20046;-71
2023/08/29 06:22:17;;;;;;;7.60;3.00;;;;;;;;;;5094419;28;20014;-72
2023/08/29 06:24:44;;;;;;;4.55;2.95;;;;;;;;;;5093747;28;20046;-71
2023/08/29 06:27:10;;;;;;;;;;;;;;;;;;5112629;28;20082;-73
2023/08/29 06:29:36;;;;;;;5.60;3.30;;;;;;;;;;5110085;28;19971;-72
2023/08/29 06:32:02;;;;;;;6.53;3.50;;;;;;;;;;5111296;28;20040;-71
2023/08/29 06:34:28;;;;;;;6.88;3.58;;;;;;;;;;5110571;28;20503;-74
2023/08/29 06:36:54;;;;;;;8.32;3.85;;;;;;;;;;5111443;28;20369;-71
2023/08/29 06:39:20;;;;;;;8.00;4.03;;;;;;;;;;5094263;28;20214;-71
2023/08/29 06:41:46;;;;;;;;;;;;;;;;;;5111107;28;20048;-71
2023/08/29 06:44:12;;;;;;;7.78;3.83;;;;;;;;;;5112865;28;19920;-71
2023/08/29 06:46:38;;;;;;;6.90;3.60;;;;;;;;;;5081469;28;20059;-71
2023/08/29 06:49:07;;;;;;;8.18;3.78;;;;;;;;;;5098176;28;20043;-71
2023/08/29 06:51:34;;;;;;;7.00;3.97;;;;;;;;;;5115990;28;20055;-72
2023/08/29 06:54:00;;;;;;;7.68;4.28;;;;;;;;;;5098336;28;20051;-71
2023/08/29 06:56:26;;;;;;;7.88;4.15;;;;;;;;;;5115321;28;20060;-71
2023/08/29 06:58:52;;;;;;;;;;;;;;;;;;5097348;28;20097;-71
2023/08/29 07:01:19;;;;;;;8.82;4.00;;;;;;;;;;5115547;28;20364;-71
2023/08/29 07:03:44;;;;;;;;;;;;;;;;;;5115709;28;20096;-71
2023/08/29 07:06:11;;;;;;;6.55;4.05;;;;;;;;;;5115256;28;19920;-72
2023/08/29 07:08:37;;;;;;;;;;;;;;;;;;5115102;28;20124;-71
2023/08/29 07:11:04;;;;;;;7.40;4.03;;;;;;;;;;5115171;27;19973;-72
2023/08/29 07:13:30;;;;;;;7.35;4.28;;;;;;;;;;5117489;27;20050;-73
2023/08/29 07:15:56;;;;;;;10.15;4.45;;;;;;;;;;5118059;27;20039;-71
2023/08/29 07:18:22;;;;;;;;;;;;;;;;;;5084712;27;20055;-72
2023/08/29 07:20:49;;;;;;;9.63;4.47;;;;;;;;;;5117954;27;19919;-71
2023/08/29 07:23:15;;;;;;;11.27;5.38;;;;;;;;;;5118156;27;20376;-71
2023/08/29 07:25:41;;;;;;;;;;;;;;;;;;5118106;27;20620;-71
2023/08/29 07:28:08;;;;;;;11.55;6.10;;;;;;;;;;5100064;27;20010;-71
2023/08/29 07:30:34;;;;;;;9.63;4.93;;;;;;;;;;5117547;27;20058;-73
2023/08/29 07:33:01;;;;;;;;;;;;;;;;;;5118242;27;20050;-71
2023/08/29 07:35:27;;;;;;;8.50;4.60;;;;;;;;;;5118228;27;19942;-71
2023/08/29 07:37:53;;;;;;;7.65;4.18;;;;;;;;;;5117585;27;20119;-71
2023/08/29 07:40:19;;;;;;;;;;;;;;;;;;5118474;27;20043;-71
2023/08/29 07:42:45;;;;;;;6.73;4.03;;;;;;;;;;5099476;27;20003;-72
2023/08/29 07:45:11;;;;;;;9.43;4.22;;;;;;;;;;5117337;27;20039;-71
2023/08/29 07:47:37;;;;;;;;;;;;;;;;;;5117426;27;20121;-72
2023/08/29 07:50:03;;;;;;;10.52;4.32;;;;;;;;;;5117653;27;19928;-71
2023/08/29 07:52:29;;;;;;;;;;;;;;;;;;5084370;27;20507;-71
2023/08/29 07:54:58;;;;;;;13.02;4.80;;;;;;;;;;5117155;27;19919;-72
2023/08/29 07:57:24;;;;;;;8.85;4.45;;;;;;;;;;5117052;27;20127;-72
2023/08/29 07:59:50;;;;;;;;;;;;;;;;;;5135358;27;20050;-71
2023/08/29 08:02:16;;;;;;;6.30;3.90;;;;;;;;;;5117088;27;19919;-72
2023/08/29 08:04:42;;;;;;;;;;;;;;;;;;5100503;27;20122;-71
2023/08/29 08:07:08;;;;;;;6.40;3.50;;;;;;;;;;5117541;27;19975;-72
2023/08/29 08:09:34;;;;;;;8.10;3.70;;;;;;;;;;5135640;27;20522;-71
2023/08/29 08:12:02;;;;;;;;;;;;;;;;;;5116928;27;20054;-72
2023/08/29 08:14:28;;;;;;;6.03;2.80;;;;;;;;;;5116467;27;19919;-71
2023/08/29 08:16:54;;;;;;;;;;;;;;;;;;5100444;27;20066;-72
2023/08/29 08:19:20;;;;;;;8.32;3.75;;;;;;;;;;5116935;27;20356;-71
2023/08/29 08:21:46;;;;;;;7.72;3.53;;;;;;;;;;5099586;27;20039;-71
2023/08/29 08:24:12;;;;;;;;;;;;;;;;;;5135444;27;20039;-71
2023/08/29 08:26:38;;;;;;;8.35;3.90;;;;;;;;;;5117032;27;19919;-73
2023/08/29 08:29:04;;;;;;;;;;;;;;;;;;5134358;27;20121;-71
2023/08/29 08:31:31;;;;;;;8.73;4.05;;;;;;;;;;5116907;27;19943;-72
2023/08/29 08:33:57;;;;;;;6.18;3.63;;;;;;;;;;5116094;27;20045;-71
2023/08/29 08:36:23;;;;;;;6.90;3.53;;;;;;;;;;5116934;27;20047;-72
2023/08/29 08:38:50;;;;;;;9.50;3.60;;;;;;;;;;5116044;27;20130;-71
2023/08/29 08:41:18;;;;;;;5.00;2.67;;;;;;;;;;5116677;27;20373;-72
2023/08/29 08:43:44;;;;;;;5.80;2.10;;;;;;;;;;5115265;27;20047;-71
2023/08/29 08:46:14;;;;;;;4.78;2.20;;;;;;;;;;5116548;27;20051;-72
2023/08/29 08:48:41;;;;;;;10.88;2.63;;;;;;;;;;5115955;27;20566;-71
2023/08/29 08:51:07;;;;;;;3.55;1.73;;;;;;;;;;5116349;27;20043;-72
2023/08/29 08:53:34;;;;;;;6.18;2.17;;;;;;;;;;5116554;27;20043;-72
2023/08/29 08:56:00;;;;;;;3.78;2.20;;;;;;;;;;5098997;27;20107;-72
2023/08/29 08:58:27;;;;;;;2.92;1.92;;;;;;;;;;5115287;27;20502;-71
2023/08/29 09:00:53;;;;;;;3.15;1.70;;;;;;;;;;5134205;27;20043;-72
2023/08/29 09:03:19;;;;;;;4.93;2.30;;;;;;;;;;5115988;27;20104;-71
2023/08/29 09:05:46;;;;;;;5.38;2.10;;;;;;;;;;5115534;27;20039;-75
2023/08/29 09:08:12;;;;;;;;;;;;;;;;;;5115957;27;20080;-72
2023/08/29 09:10:41;;;;;;;3.05;2.17;;;;;;;;;;5116393;27;19919;-72
2023/08/29 09:13:07;;;;;;;7.15;2.33;;;;;;;;;;5132108;27;20678;-72
2023/08/29 09:15:34;;;;;;;;;;;;;;;;;;5134912;27;20191;-72
2023/08/29 09:18:00;;;;;;;4.05;1.55;;;;;;;;;;5115161;27;19919;-72
2023/08/29 09:20:30;;;;;;;5.18;2.47;;;;;;;;;;5116214;27;20373;-71
2023/08/29 09:22:56;;;;;;;6.20;2.13;;;;;;;;;;5115345;27;20047;-72
2023/08/29 09:25:25;;;;;;;3.70;1.80;;;;;;;;;;5115825;27;20067;-72
2023/08/29 09:27:51;;;;;;;3.70;1.58;;;;;;;;;;5114814;27;20054;-72
2023/08/29 09:30:17;;;;;;;;;;;;;;;;;;5115945;27;20045;-72
2023/08/29 09:32:47;;;;;;;2.55;1.48;;;;;;;;;;5115536;27;19919;-71
2023/08/29 09:35:19;;;;;;;3.90;1.50;;;;;;;;;;5098612;27;20043;-72
2023/08/29 09:37:52;;;;;;;3.75;1.20;;;;;;;;;;5115610;27;20182;-75
2023/08/29 09:40:20;;;;;;;4.97;1.60;;;;;;;;;;5115822;27;20123;-72
2023/08/29 09:42:56;;;;;;;5.82;1.60;;;;;;;;;;5114890;27;20146;-75
2023/08/29 09:45:22;;;;;;;3.45;1.50;;;;;;;;;;5115058;27;20052;-71
2023/08/29 09:47:51;;;;;;;1.75;1.38;;;;;;;;;;5114791;27;20083;-75
2023/08/29 09:50:18;;;;;;;2.08;1.17;;;;;;;;;;5115628;27;20051;-71
2023/08/29 09:52:44;;;;;;;5.45;1.58;;;;;;;;;;5098454;27;20494;-72
2023/08/29 09:55:10;;;;;;;;;;;;;;;;;;5115391;27;20476;-72
2023/08/29 09:57:37;;;;;;;2.75;1.38;;;;;;;;;;5114472;27;19926;-72
2023/08/29 10:00:04;;;;;;;4.00;1.65;;;;;;;;;;5114164;27;20043;-72
2023/08/29 10:02:30;;;;;;;2.17;1.23;;;;;;;;;;5114775;27;20082;-72
2023/08/29 10:05:06;;;;;;;3.75;1.40;;;;;;;;;;5097642;27;20454;-72
2023/08/29 10:07:40;;;;;;;4.13;1.98;;;;;;;;;;5115257;27;20050;-71
2023/08/29 10:10:13;;;;;;;3.28;1.60;;;;;;;;;;5114637;27;20138;-72
2023/08/29 10:12:39;;;;;;;4.25;1.73;;;;;;;;;;5132241;27;20094;-71
2023/08/29 10:15:06;;;;;;;3.83;1.55;;;;;;;;;;5097242;27;20134;-72
2023/08/29 10:17:33;;;;;;;3.92;1.67;;;;;;;;;;5114739;27;20046;-71
2023/08/29 10:20:10;;;;;;;3.47;1.65;;;;;;;;;;5113827;28;20035;-72
2023/08/29 10:22:37;;;;;;;5.43;1.98;;;;;;;;;;5114953;27;20094;-71
2023/08/29 10:25:04;;;;;;;1.40;1.02;;;;;;;;;;5097268;28;20043;-72
2023/08/29 10:27:31;;;;;;;1.95;1.10;;;;;;;;;;5114351;27;20054;-72
2023/08/29 10:29:57;;;;;;;3.13;1.20;;;;;;;;;;5113957;27;20046;-72
2023/08/29 10:32:24;;;;;;;2.95;1.20;;;;;;;;;;5114184;27;20126;-72
2023/08/29 10:34:51;;;;;;;4.68;1.20;;;;;;;;;;5114972;28;20051;-72
2023/08/29 10:37:21;;;;;;;2.92;1.60;;;;;;;;;;5132564;27;20084;-72
2023/08/29 10:39:47;;;;;;;3.20;1.10;;;;;;;;;;5114308;28;20407;-72
2023/08/29 10:42:14;;;;;;;1.08;0.80;;;;;;;;;;5096322;28;20043;-72
2023/08/29 10:44:40;;;;;;;3.63;1.10;;;;;;;;;;5114384;28;20049;-73
2023/08/29 10:47:21;;;;;;;3.75;1.02;;;;;;;;;;5114262;28;20493;-73
2023/08/29 10:49:57;;;;;;;1.13;0.90;;;;;;;;;;5114845;28;20050;-72
2023/08/29 10:52:24;;;;;;;2.05;0.95;;;;;;;;;;5114549;28;20051;-72
2023/08/29 10:55:02;;;;;;;1.05;0.90;;;;;;;;;;5097802;28;20055;-72
2023/08/29 10:57:29;;;;;;;2.95;1.17;;;;;;;;;;5114055;28;20135;-72
2023/08/29 10:59:56;;;;;;;0.85;0.57;;;;;;;;;;5097237;28;20047;-74
2023/08/29 11:02:41;;;;;;;2.00;0.90;;;;;;;;;;5113769;28;20130;-72
2023/08/29 11:05:07;;;;;;;2.60;0.80;;;;;;;;;;5114083;28;20522;-72
2023/08/29 11:07:37;;;;;;;2.30;0.80;;;;;;;;;;5114532;28;20047;-72
2023/08/29 11:10:13;;;;;;;2.63;0.80;;;;;;;;;;5114022;28;20049;-72
2023/08/29 11:12:58;;;;;;;2.63;0.88;;;;;;;;;;5096528;28;20051;-72
2023/08/29 11:15:44;;;;;;;1.17;0.70;;;;;;;;;;5114287;28;20087;-72
2023/08/29 11:18:22;;;;;;;0.88;0.70;;;;;;;;;;5113461;28;20047;-72
2023/08/29 11:20:48;;;;;;;2.05;1.00;;;;;;;;;;5132569;28;20170;-72
2023/08/29 11:23:14;;;;;;;1.35;0.90;;;;;;;;;;5113745;28;20051;-72
2023/08/29 11:25:40;;;;;;;0.98;0.90;;;;;;;;;;5114424;28;20047;-72
2023/08/29 11:28:07;;;;;;;2.55;1.00;;;;;;;;;;5112797;28;20141;-72
2023/08/29 11:30:33;;;;;;;5.28;0.93;;;;;;;;;;5116099;27;20502;-72
2023/08/29 11:32:59;;;;;;;2.40;0.90;;;;;;;;;;5100342;27;20058;-75
2023/08/29 11:35:29;;;;;;;1.67;1.13;;;;;;;;;;5118260;27;20361;-72
2023/08/29 11:37:55;;;;;;;2.58;0.95;;;;;;;;;;5117758;27;20487;-72
2023/08/29 11:40:21;;;;;;;1.38;1.00;;;;;;;;;;5100591;27;20872;-72
2023/08/29 11:42:47;;;;;;;1.73;0.90;;;;;;;;;;5117078;27;20051;-72
2023/08/29 11:45:15;;;;;;;1.40;0.80;;;;;;;;;;5116747;27;20475;-72
2023/08/29 11:47:41;;;;;;;2.22;0.98;;;;;;;;;;5135744;27;20050;-72
2023/08/29 11:50:08;;;;;;;1.38;1.10;;;;;;;;;;5117421;27;20448;-73
2023/08/29 11:52:34;;;;;;;1.70;0.90;;;;;;;;;;5117758;27;20376;-72
2023/08/29 11:55:01;;;;;;;0.95;0.90;;;;;;;;;;5117570;27;20039;-75
2023/08/29 11:57:30;;;;;;;2.17;1.20;;;;;;;;;;5099975;27;20051;-72
2023/08/29 11:59:59;;;;;;;4.78;1.00;;;;;;;;;;5100530;27;20043;-72
2023/08/29 12:02:26;;;;;;;2.17;1.10;;;;;;;;;;5116811;27;20039;-72
2023/08/29 12:04:56;;;;;;;1.52;1.13;;;;;;;;;;5083799;27;20448;-72
2023/08/29 12:07:22;;;;;;;2.85;1.42;;;;;;;;;;5116923;27;20050;-72
2023/08/29 12:09:49;;;;;;;2.92;1.30;;;;;;;;;;5117426;27;20082;-72
2023/08/29 12:12:36;;;;;;;3.08;1.10;;;;;;;;;;5115775;27;20055;-72
2023/08/29 12:15:05;;;;;;;3.65;1.65;;;;;;;;;;5134917;27;20209;-75
2023/08/29 12:17:42;;;;;;;9.00;2.08;;;;;;;;;;5117014;27;20054;-72
2023/08/29 12:20:08;;;;;;;;;;;;;;;;;;5100323;27;20054;-72
2023/08/29 12:22:36;;;;;;;5.57;2.22;;;;;;;;;;5099792;27;19919;-72
2023/08/29 12:25:03;;;;;;;5.53;2.53;;;;;;;;;;5099794;27;20039;-74
2023/08/29 12:27:29;;;;;;;6.80;2.90;;;;;;;;;;5116596;27;20055;-72
2023/08/29 12:29:55;;;;;;;;;;;;;;;;;;5116942;27;20043;-72
2023/08/29 12:32:25;;;;;;;4.72;2.83;;;;;;;;;;5098808;27;19941;-72
2023/08/29 12:34:51;;;;;;;5.35;3.00;;;;;;;;;;5117166;27;20051;-72
2023/08/29 12:37:17;;;;;;;;;;;;;;;;;;5116872;27;20134;-72
2023/08/29 12:39:45;;;;;;;7.80;3.08;;;;;;;;;;5099919;27;20002;-72
2023/08/29 12:42:11;;;;;;;6.88;3.22;;;;;;;;;;5114851;27;20126;-73
2023/08/29 12:44:37;;;;;;;6.85;3.00;;;;;;;;;;5099334;27;20373;-72
2023/08/29 12:47:04;;;;;;;8.88;3.70;;;;;;;;;;5134815;27;20182;-74
2023/08/29 12:49:31;;;;;;;7.85;4.05;;;;;;;;;;5116357;27;20046;-72
2023/08/29 12:51:57;;;;;;;6.57;3.92;;;;;;;;;;5134794;27;20047;-72
2023/08/29 12:54:23;;;;;;;10.43;4.00;;;;;;;;;;5115671;27;20061;-72
2023/08/29 12:56:49;;;;;;;7.07;3.42;;;;;;;;;;5116586;27;20053;-72
2023/08/29 12:59:15;;;;;;;;;;;;;;;;;;5098195;27;20047;-72
2023/08/29 13:01:41;;;;;;;5.63;2.60;;;;;;;;;;5116615;27;19920;-72
2023/08/29 13:04:07;;;;;;;4.38;2.38;;;;;;;;;;5115388;27;20111;-72
2023/08/29 13:06:33;;;;;;;3.20;2.25;;;;;;;;;;5116269;27;20047;-71
2023/08/29 13:08:59;;;;;;;;;;;;;;;;;;5116745;27;20051;-72
2023/08/29 13:11:25;;;;;;;3.50;1.83;;;;;;;;;;5115726;27;19919;-72
2023/08/29 13:13:51;;;;;;;2.85;1.73;;;;;;;;;;5114646;27;20055;-72
2023/08/29 13:16:17;;;;;;;;;;;;;;;;;;5099290;27;20055;-72
2023/08/29 13:18:44;;;;;;;3.33;1.70;;;;;;;;;;5115839;27;20488;-72
2023/08/29 13:21:11;;;;;;;5.10;1.73;;;;;;;;;;5115605;27;20514;-72
2023/08/29 13:23:37;;;;;;;2.90;1.50;;;;;;;;;;5115998;27;20411;-72
2023/08/29 13:26:03;;;;;;;3.90;1.52;;;;;;;;;;5115710;27;20035;-72
2023/08/29 13:28:30;;;;;;;2.83;1.70;;;;;;;;;;5097503;27;20094;-72
2023/08/29 13:30:59;;;;;;;3.33;1.80;;;;;;;;;;5115979;27;20047;-72
2023/08/29 13:33:25;;;;;;;1.60;1.33;;;;;;;;;;5097955;27;20122;-71
2023/08/29 13:35:51;;;;;;;4.20;1.27;;;;;;;;;;5115822;27;20055;-71
2023/08/29 13:38:17;;;;;;;2.08;1.30;;;;;;;;;;5115306;27;20050;-72
2023/08/29 13:40:45;;;;;;;;;;;;;;;;;;5134418;27;20050;-71
2023/08/29 13:43:11;;;;;;;1.80;1.02;;;;;;;;;;5132226;27;19926;-74
2023/08/29 13:45:37;;;;;;;2.58;1.30;;;;;;;;;;5115570;27;20047;-72
2023/08/29 13:48:03;;;;;;;;;;;;;;;;;;5115751;27;20058;-72
2023/08/29 13:50:29;;;;;;;1.85;1.17;;;;;;;;;;5098170;27;20059;-72
2023/08/29 13:52:56;;;;;;;;;;;;;;;;;;5133901;27;20491;-72
2023/08/29 13:55:22;;;;;;;1.67;1.42;;;;;;;;;;5097974;27;19920;-71
2023/08/29 13:57:48;;;;;;;;;;;;;;;;;;5115279;27;20100;-72
2023/08/29 14:00:14;;;;;;;5.75;1.40;;;;;;;;;;5114476;27;19923;-71
2023/08/29 14:02:40;;;;;;;1.70;1.20;;;;;;;;;;5114919;27;20043;-72
2023/08/29 14:05:08;;;;;;;2.40;1.40;;;;;;;;;;5115286;27;20043;-72
2023/08/29 14:07:34;;;;;;;1.90;1.30;;;;;;;;;;5114638;27;20039;-72
2023/08/29 14:10:00;;;;;;;2.03;1.27;;;;;;;;;;5098321;27;20403;-72
2023/08/29 14:12:26;;;;;;;1.65;1.10;;;;;;;;;;5113607;27;20821;-72
2023/08/29 14:14:52;;;;;;;2.25;1.25;;;;;;;;;;5097974;27;20047;-72
2023/08/29 14:17:18;;;;;;;1.55;1.10;;;;;;;;;;5114270;27;20043;-72
2023/08/29 14:19:44;;;;;;;1.60;1.23;;;;;;;;;;5115213;27;20043;-72
2023/08/29 14:22:10;;;;;;;1.83;1.15;;;;;;;;;;5097589;27;20054;-75
2023/08/29 14:24:37;;;;;;;1.85;1.10;;;;;;;;;;5132872;27;20130;-72
2023/08/29 14:27:03;;;;;;;0.88;0.70;;;;;;;;;;5133129;27;20039;-72
2023/08/29 14:29:30;;;;;;;2.53;1.10;;;;;;;;;;5113497;27;20386;-72
2023/08/29 14:31:56;;;;;;;1.63;0.90;;;;;;;;;;5115067;27;20050;-72
2023/08/29 14:34:22;;;;;;;2.55;1.00;;;;;;;;;;5113977;28;20513;-73
2023/08/29 14:36:48;;;;;;;1.98;1.00;;;;;;;;;;5114984;27;20464;-72
2023/08/29 14:39:14;;;;;;;1.75;1.00;;;;;;;;;;5114314;27;20062;-75
2023/08/29 14:41:43;;;;;;;1.42;0.90;;;;;;;;;;5114517;28;20445;-72
2023/08/29 14:44:10;;;;;;;1.50;1.00;;;;;;;;;;5113841;28;20514;-72
2023/08/29 14:46:36;;;;;;;2.20;1.10;;;;;;;;;;5114449;28;20047;-72
2023/08/29 14:49:02;;;;;;;2.55;1.20;;;;;;;;;;5114432;28;20391;-72
2023/08/29 14:51:29;;;;;;;2.50;1.30;;;;;;;;;;5097297;28;20051;-72
2023/08/29 14:53:56;;;;;;;2.30;1.00;;;;;;;;;;5097654;28;20043;-72
2023/08/29 14:56:22;;;;;;;1.38;1.00;;;;;;;;;;5114204;28;20184;-71
2023/08/29 14:58:48;;;;;;;1.98;0.90;;;;;;;;;;5080084;28;20050;-72